createdAt,value
2019-02-10T00:02:09.708Z,1.30
2019-02-10T00:04:52.062Z,0.80
2019-02-10T00:07:34.725Z,0.80
2019-02-10T00:10:17.321Z,1.03
2019-02-10T00:12:59.970Z,0.80
2019-02-10T00:15:42.701Z,0.77
2019-02-10T00:18:24.686Z,1.23
2019-02-10T00:21:06.384Z,0.80
2019-02-10T00:23:48.403Z,1.20
2019-02-10T00:26:30.689Z,0.90
2019-02-10T00:29:12.300Z,0.93
2019-02-10T00:32:01.595Z,0.80
2019-02-10T00:34:44.068Z,0.80
2019-02-10T00:37:26.724Z,1.00
2019-02-10T00:40:08.980Z,0.73
2019-02-10T00:42:51.392Z,1.53
2019-02-10T00:45:34.224Z,1.17
2019-02-10T00:48:14.608Z,0.90
2019-02-10T00:54:11.060Z,0.70
2019-02-10T00:56:51.759Z,0.80
2019-02-10T00:59:41.360Z,1.10
2019-02-10T01:02:23.152Z,1.00
2019-02-10T01:05:05.702Z,1.03
2019-02-10T01:07:48.305Z,1.00
2019-02-10T01:10:30.881Z,0.80
2019-02-10T01:13:12.702Z,1.20
2019-02-10T01:15:54.576Z,1.17
2019-02-10T01:18:37.146Z,0.90
2019-02-10T01:21:19.385Z,1.03
2019-02-10T01:24:01.195Z,1.10
2019-02-10T01:26:43.525Z,1.40
2019-02-10T01:29:26.124Z,1.10
2019-02-10T01:32:08.533Z,1.10
2019-02-10T01:34:50.408Z,0.80
2019-02-10T01:37:32.516Z,0.83
2019-02-10T01:40:15.076Z,1.27
2019-02-10T01:42:57.705Z,0.97
2019-02-10T01:45:38.348Z,1.37
2019-02-10T01:48:27.904Z,0.70
2019-02-10T01:51:10.460Z,1.13
2019-02-10T01:53:52.572Z,0.90
2019-02-10T01:56:35.368Z,0.80
2019-02-10T01:59:17.840Z,0.77
2019-02-10T02:02:00.394Z,0.80
2019-02-10T02:04:42.504Z,0.90
2019-02-10T02:07:25.220Z,0.80
2019-02-10T02:10:08.409Z,0.90
2019-02-10T02:12:50.385Z,1.37
2019-02-10T02:15:32.925Z,0.70
2019-02-10T02:18:15.505Z,1.10
2019-02-10T02:20:57.449Z,1.17
2019-02-10T02:23:40.146Z,1.90
2019-02-10T02:26:22.713Z,0.63
2019-02-10T02:29:03.213Z,0.87
2019-02-10T02:31:52.807Z,1.20
2019-02-10T02:34:35.033Z,1.10
2019-02-10T02:37:17.578Z,1.30
2019-02-10T02:39:59.353Z,1.00
2019-02-10T02:42:41.742Z,1.80
2019-02-10T02:45:24.146Z,0.90
2019-02-10T02:48:06.430Z,1.33
2019-02-10T02:50:48.672Z,1.30
2019-02-10T02:53:30.929Z,0.93
2019-02-10T02:56:13.137Z,0.90
2019-02-10T02:58:55.353Z,1.07
2019-02-10T03:01:37.163Z,1.30
2019-02-10T03:04:18.909Z,1.10
2019-02-10T03:07:01.529Z,1.60
2019-02-10T03:09:43.413Z,1.43
2019-02-10T03:12:25.050Z,0.90
2019-02-10T03:15:08.082Z,1.20
2019-02-10T03:17:50.277Z,1.63
2019-02-10T03:20:32.836Z,1.57
2019-02-10T03:23:15.445Z,0.90
2019-02-10T03:25:57.808Z,2.17
2019-02-10T03:28:40.643Z,1.20
2019-02-10T03:31:23.199Z,1.20
2019-02-10T03:34:06.691Z,1.43
2019-02-10T03:36:49.347Z,1.13
2019-02-10T03:39:31.707Z,0.90
2019-02-10T03:42:13.897Z,1.47
2019-02-10T03:44:56.625Z,1.00
2019-02-10T03:47:39.103Z,1.20
2019-02-10T03:50:21.712Z,1.20
2019-02-10T03:53:04.129Z,1.93
2019-02-10T03:55:46.797Z,1.23
2019-02-10T03:58:28.980Z,1.10
2019-02-10T04:01:11.148Z,1.57
2019-02-10T04:03:53.884Z,1.00
2019-02-10T04:06:36.144Z,1.10
2019-02-10T04:09:18.697Z,1.10
2019-02-10T04:12:00.600Z,1.43
2019-02-10T04:14:43.101Z,1.53
2019-02-10T04:17:25.289Z,1.30
2019-02-10T04:20:08.149Z,1.20
2019-02-10T04:22:50.233Z,1.97
2019-02-10T04:25:32.308Z,1.30
2019-02-10T04:28:15.037Z,1.47
2019-02-10T04:30:57.557Z,1.20
2019-02-10T04:33:40.433Z,1.30
2019-02-10T04:36:22.945Z,0.83
2019-02-10T04:39:05.440Z,1.60
2019-02-10T04:41:47.868Z,1.57
2019-02-10T04:44:30.545Z,0.90
2019-02-10T04:47:12.729Z,1.20
2019-02-10T04:49:54.462Z,1.30
2019-02-10T04:52:36.787Z,2.43
2019-02-10T04:55:19.276Z,1.97
2019-02-10T04:58:01.646Z,1.80
2019-02-10T05:00:43.905Z,1.00
2019-02-10T05:03:26.231Z,1.07
2019-02-10T05:06:08.988Z,1.80
2019-02-10T05:08:51.333Z,1.00
2019-02-10T05:11:33.296Z,1.37
2019-02-10T05:14:15.909Z,2.53
2019-02-10T05:16:56.682Z,2.20
2019-02-10T05:19:46.316Z,1.70
2019-02-10T05:22:28.788Z,1.00
2019-02-10T05:25:11.479Z,1.30
2019-02-10T05:27:54.096Z,1.43
2019-02-10T05:30:36.055Z,1.10
2019-02-10T05:33:18.477Z,2.10
2019-02-10T05:36:00.196Z,1.37
2019-02-10T05:38:43.058Z,1.03
2019-02-10T05:41:25.612Z,1.00
2019-02-10T05:44:07.582Z,1.33
2019-02-10T05:46:49.880Z,1.03
2019-02-10T05:49:30.344Z,1.10
2019-02-10T05:52:19.654Z,1.60
2019-02-10T05:55:01.482Z,1.20
2019-02-10T05:57:42.330Z,1.50
2019-02-10T06:00:25.189Z,1.43
2019-02-10T06:03:07.914Z,0.90
2019-02-10T06:05:50.324Z,1.53
2019-02-10T06:08:32.328Z,1.50
2019-02-10T06:11:14.944Z,1.00
2019-02-10T06:13:57.308Z,1.60
2019-02-10T06:16:40.176Z,1.00
2019-02-10T06:19:22.728Z,1.47
2019-02-10T06:22:04.443Z,1.13
2019-02-10T06:24:46.137Z,1.00
2019-02-10T06:27:28.720Z,1.00
2019-02-10T06:30:10.985Z,1.03
2019-02-10T06:32:53.151Z,1.40
2019-02-10T06:35:35.131Z,1.03
2019-02-10T06:38:22.110Z,1.10
2019-02-10T06:41:06.860Z,1.40
2019-02-10T06:43:49.153Z,1.00
2019-02-10T06:46:31.164Z,1.23
2019-02-10T06:49:13.615Z,1.10
2019-02-10T06:51:55.372Z,0.80
2019-02-10T06:57:46.568Z,1.20
2019-02-10T07:00:48.220Z,1.00
2019-02-10T07:06:51.109Z,1.27
2019-02-10T07:09:32.928Z,1.80
2019-02-10T07:12:15.057Z,1.47
2019-02-10T07:14:56.797Z,1.80
2019-02-10T07:17:42.623Z,3.20
2019-02-10T07:20:51.400Z,1.73
2019-02-10T07:24:04.812Z,1.30
2019-02-10T07:26:58.201Z,2.63
2019-02-10T07:29:36.069Z,1.20
2019-02-10T07:32:19.791Z,1.10
2019-02-10T07:35:03.709Z,1.10
2019-02-10T07:41:02.201Z,1.80
2019-02-10T07:43:44.637Z,1.40
2019-02-10T07:46:27.499Z,1.50
2019-02-10T07:49:09.975Z,1.13
2019-02-10T07:51:52.473Z,1.57
2019-02-10T07:54:41.968Z,0.90
2019-02-10T07:57:18.840Z,1.63
2019-02-10T08:00:00.842Z,1.63
2019-02-10T08:02:45.210Z,1.40
2019-02-10T08:05:27.184Z,0.87
2019-02-10T08:08:09.669Z,1.00
2019-02-10T08:11:00.376Z,0.90
2019-02-10T08:14:09.234Z,1.40
2019-02-10T08:16:50.988Z,1.30
2019-02-10T08:19:32.932Z,1.03
2019-02-10T08:22:14.599Z,1.10
2019-02-10T08:24:57.400Z,1.40
2019-02-10T08:27:40.025Z,1.73
2019-02-10T08:30:21.828Z,1.57
2019-02-10T08:33:04.196Z,2.60
2019-02-10T08:36:03.888Z,1.53
2019-02-10T08:39:12.700Z,1.50
2019-02-10T08:41:54.444Z,1.40
2019-02-10T08:44:37.049Z,1.27
2019-02-10T08:47:19.417Z,1.40
2019-02-10T08:50:01.733Z,1.30
2019-02-10T08:52:51.556Z,1.20
2019-02-10T08:55:26.312Z,1.40
2019-02-10T08:58:15.616Z,1.40
2019-02-10T09:00:57.985Z,1.43
2019-02-10T09:03:40.492Z,1.00
2019-02-10T09:06:22.226Z,1.63
2019-02-10T09:09:05.072Z,1.63
2019-02-10T09:11:46.886Z,1.17
2019-02-10T09:14:29.462Z,0.80
2019-02-10T09:17:11.274Z,1.73
2019-02-10T09:19:54.156Z,1.40
2019-02-10T09:22:36.737Z,1.53
2019-02-10T09:25:18.367Z,1.30
2019-02-10T09:28:00.909Z,1.60
2019-02-10T09:30:43.484Z,1.23
2019-02-10T09:33:25.232Z,2.00
2019-02-10T09:36:07.680Z,1.37
2019-02-10T09:38:49.624Z,1.63
2019-02-10T09:41:32.453Z,1.20
2019-02-10T09:44:14.713Z,1.57
2019-02-10T09:46:56.912Z,2.07
2019-02-10T09:49:38.831Z,1.83
2019-02-10T09:52:21.260Z,2.03
2019-02-10T09:55:03.053Z,1.20
2019-02-10T09:57:45.072Z,1.47
2019-02-10T10:00:27.657Z,3.03
2019-02-10T10:03:10.472Z,1.40
2019-02-10T10:05:52.952Z,1.87
2019-02-10T10:08:35.801Z,1.23
2019-02-10T10:11:17.929Z,1.93
2019-02-10T10:14:00.397Z,1.53
2019-02-10T10:16:42.932Z,1.90
2019-02-10T10:19:25.105Z,2.40
2019-02-10T10:22:07.729Z,2.47
2019-02-10T10:24:50.738Z,2.00
2019-02-10T10:27:33.144Z,2.43
2019-02-10T10:30:15.311Z,2.70
2019-02-10T10:32:57.425Z,2.10
2019-02-10T10:35:39.993Z,2.30
2019-02-10T10:38:21.874Z,2.50
2019-02-10T10:41:03.988Z,3.40
2019-02-10T10:43:46.253Z,2.17
2019-02-10T10:46:28.393Z,2.57
2019-02-10T10:49:10.157Z,2.80
2019-02-10T10:51:52.640Z,2.07
2019-02-10T10:54:42.517Z,2.70
2019-02-10T10:57:19.036Z,2.80
2019-02-10T11:00:02.752Z,2.03
2019-02-10T11:02:45.145Z,2.07
2019-02-10T11:05:27.624Z,5.10
2019-02-10T11:08:10.265Z,2.87
2019-02-10T11:10:52.958Z,3.67
2019-02-10T11:13:35.276Z,2.37
2019-02-10T11:16:15.773Z,2.03
2019-02-10T11:19:05.369Z,2.27
2019-02-10T11:21:48.328Z,2.30
2019-02-10T11:24:30.785Z,2.53
2019-02-10T11:27:13.471Z,2.20
2019-02-10T11:29:56.276Z,2.30
2019-02-10T11:32:39.369Z,1.90
2019-02-10T11:35:21.336Z,2.07
2019-02-10T11:38:03.390Z,1.90
2019-02-10T11:40:46.230Z,2.27
2019-02-10T11:43:28.507Z,1.70
2019-02-10T11:46:10.724Z,3.23
2019-02-10T11:48:52.720Z,1.80
2019-02-10T11:51:36.640Z,1.63
2019-02-10T11:54:19.108Z,2.67
2019-02-10T11:56:59.528Z,1.70
2019-02-10T11:59:48.884Z,2.07
2019-02-10T12:02:37.830Z,1.87
2019-02-10T12:05:16.732Z,1.80
2019-02-10T12:07:58.392Z,1.73
2019-02-10T12:10:41.101Z,1.50
2019-02-10T12:13:23.504Z,1.57
2019-02-10T12:16:06.121Z,1.77
2019-02-10T12:18:48.404Z,1.70
2019-02-10T12:21:28.936Z,1.83
2019-02-10T12:24:18.244Z,1.40
2019-02-10T12:27:00.847Z,1.57
2019-02-10T12:29:42.948Z,2.27
2019-02-10T12:32:26.488Z,1.40
2019-02-10T12:35:09.006Z,1.47
2019-02-10T12:37:49.472Z,1.33
2019-02-10T12:40:39.006Z,1.43
2019-02-10T12:43:21.160Z,1.30
2019-02-10T12:46:03.149Z,1.00
2019-02-10T12:48:45.960Z,1.50
2019-02-10T12:51:28.481Z,1.10
2019-02-10T12:54:11.105Z,1.30
2019-02-10T12:56:53.624Z,2.40
2019-02-10T12:59:36.411Z,1.20
2019-02-10T13:02:19.173Z,1.30
2019-02-10T13:05:01.871Z,1.17
2019-02-10T13:07:42.488Z,0.93
2019-02-10T13:10:31.870Z,1.20
2019-02-10T13:13:19.100Z,0.90
2019-02-10T13:15:57.672Z,2.27
2019-02-10T13:18:39.500Z,1.17
2019-02-10T13:21:22.032Z,1.00
2019-02-10T13:24:05.169Z,1.10
2019-02-10T13:26:47.605Z,1.17
2019-02-10T13:29:30.141Z,1.40
2019-02-10T13:32:12.677Z,1.20
2019-02-10T13:34:54.617Z,2.27
2019-02-10T13:37:37.573Z,0.97
2019-02-10T13:40:20.041Z,1.17
2019-02-10T13:43:02.312Z,1.00
2019-02-10T13:45:44.888Z,1.00
2019-02-10T13:48:26.817Z,1.53
2019-02-10T13:51:09.573Z,1.20
2019-02-10T13:53:51.584Z,1.23
2019-02-10T13:56:33.652Z,1.77
2019-02-10T13:59:16.005Z,1.10
2019-02-10T14:01:58.375Z,1.10
2019-02-10T14:04:40.777Z,1.37
2019-02-10T14:07:23.401Z,1.00
2019-02-10T14:10:04.056Z,1.40
2019-02-10T14:16:02.134Z,1.37
2019-02-10T14:18:44.589Z,1.00
2019-02-10T14:21:27.141Z,1.07
2019-02-10T14:24:09.352Z,1.07
2019-02-10T14:26:52.048Z,1.30
2019-02-10T14:29:34.543Z,1.10
2019-02-10T14:32:15.041Z,1.00
2019-02-10T14:35:04.796Z,1.03
2019-02-10T14:37:46.857Z,1.47
2019-02-10T14:40:33.792Z,1.37
2019-02-10T14:43:13.119Z,1.43
2019-02-10T14:45:54.872Z,1.13
2019-02-10T14:48:37.920Z,1.23
2019-02-10T14:51:20.297Z,1.43
2019-02-10T14:54:02.061Z,1.30
2019-02-10T14:56:42.692Z,1.13
2019-02-10T15:02:38.960Z,1.30
2019-02-10T15:05:21.615Z,1.60
2019-02-10T15:08:03.593Z,1.30
2019-02-10T15:10:46.428Z,1.73
2019-02-10T15:13:28.685Z,1.43
2019-02-10T15:16:11.073Z,1.20
2019-02-10T15:18:53.593Z,1.63
2019-02-10T15:21:35.308Z,1.80
2019-02-10T15:24:18.192Z,1.43
2019-02-10T15:27:00.702Z,1.50
2019-02-10T15:29:43.256Z,1.30
2019-02-10T15:32:25.301Z,1.33
2019-02-10T15:35:05.839Z,1.30
2019-02-10T15:37:55.488Z,1.60
2019-02-10T15:40:37.995Z,1.37
2019-02-10T15:43:20.192Z,1.93
2019-02-10T15:46:02.949Z,1.40
2019-02-10T15:48:44.676Z,2.90
2019-02-10T15:51:35.715Z,1.73
2019-02-10T15:54:10.897Z,1.53
2019-02-10T15:56:53.549Z,1.83
2019-02-10T15:59:35.225Z,1.93
2019-02-10T16:02:17.168Z,1.30
2019-02-10T16:04:58.977Z,1.20
2019-02-10T16:07:41.745Z,1.07
2019-02-10T16:10:24.425Z,1.27
2019-02-10T16:13:06.436Z,1.50
2019-02-10T16:15:48.640Z,1.43
2019-02-10T16:18:30.941Z,1.30
2019-02-10T16:21:13.411Z,1.50
2019-02-10T16:23:56.060Z,1.57
2019-02-10T16:26:38.473Z,1.47
2019-02-10T16:29:21.284Z,1.30
2019-02-10T16:32:03.685Z,1.63
2019-02-10T16:34:46.565Z,1.73
2019-02-10T16:37:29.424Z,1.73
2019-02-10T16:40:12.020Z,1.50
2019-02-10T16:42:54.244Z,1.63
2019-02-10T16:45:36.045Z,1.60
2019-02-10T16:48:18.360Z,1.97
2019-02-10T16:50:59.252Z,1.40
2019-02-10T16:56:50.537Z,1.23
2019-02-10T16:59:32.638Z,1.30
2019-02-10T17:02:15.148Z,1.20
2019-02-10T17:04:55.744Z,1.47
2019-02-10T17:07:45.443Z,1.30
2019-02-10T17:10:35.056Z,1.80
2019-02-10T17:13:18.056Z,1.50
2019-02-10T17:16:05.237Z,1.50
2019-02-10T17:18:45.146Z,1.07
2019-02-10T17:21:27.725Z,1.53
2019-02-10T17:24:10.258Z,1.50
2019-02-10T17:26:52.628Z,1.67
2019-02-10T17:29:35.576Z,1.40
2019-02-10T17:32:18.233Z,1.50
2019-02-10T17:35:00.936Z,1.20
2019-02-10T17:37:43.457Z,1.30
2019-02-10T17:40:25.965Z,1.53
2019-02-10T17:43:08.896Z,1.73
2019-02-10T17:45:49.384Z,1.10
2019-02-10T17:48:38.765Z,1.20
2019-02-10T17:51:20.508Z,1.70
2019-02-10T17:54:02.577Z,1.33
2019-02-10T17:56:44.452Z,1.20
2019-02-10T17:59:26.971Z,1.43
2019-02-10T18:02:08.669Z,1.77
2019-02-10T18:04:51.300Z,1.20
2019-02-10T18:07:33.061Z,1.83
2019-02-10T18:10:15.933Z,1.20
2019-02-10T18:12:58.246Z,1.33
2019-02-10T18:15:59.867Z,1.37
2019-02-10T18:19:01.391Z,1.00
2019-02-10T18:25:33.781Z,1.63
2019-02-10T18:28:35.613Z,1.50
2019-02-10T18:31:37.273Z,1.17
2019-02-10T18:34:32.512Z,1.10
2019-02-10T18:37:21.051Z,0.90
2019-02-10T18:40:02.630Z,1.50
2019-02-10T18:42:43.897Z,1.20
2019-02-10T18:45:52.382Z,1.10
2019-02-10T18:48:41.524Z,1.30
2019-02-10T18:51:43.085Z,1.50
2019-02-10T18:54:32.256Z,1.00
2019-02-10T18:57:33.648Z,1.00
2019-02-10T19:00:35.381Z,0.90
2019-02-10T19:03:37.061Z,0.93
2019-02-10T19:06:26.476Z,1.33
2019-02-10T19:09:16.592Z,0.97
2019-02-10T19:12:20.685Z,1.57
2019-02-10T19:15:21.796Z,1.20
2019-02-10T19:18:31.045Z,0.80
2019-02-10T19:21:24.688Z,1.00
2019-02-10T19:24:17.660Z,1.13
2019-02-10T19:27:19.444Z,0.87
2019-02-10T19:30:15.396Z,1.03
2019-02-10T19:33:17.162Z,0.80
2019-02-10T19:36:18.800Z,1.00
2019-02-10T19:39:14.760Z,0.80
2019-02-10T19:42:15.996Z,1.00
2019-02-10T19:45:13.236Z,0.70
2019-02-10T19:48:14.789Z,0.80
2019-02-10T19:51:16.789Z,0.90
2019-02-10T19:54:06.704Z,0.77
2019-02-10T19:57:08.173Z,0.83
2019-02-10T20:00:10.209Z,1.20
2019-02-10T20:03:00.344Z,0.70
2019-02-10T20:06:01.220Z,0.73
2019-02-10T20:12:05.272Z,1.00
2019-02-10T20:14:55.515Z,0.80
2019-02-10T20:21:23.175Z,1.43
2019-02-10T20:24:13.308Z,0.97
2019-02-10T20:27:21.774Z,1.07
2019-02-10T20:30:11.996Z,1.17
2019-02-10T20:33:04.621Z,1.20
2019-02-10T20:36:06.096Z,1.00
2019-02-10T20:39:00.580Z,0.70
2019-02-10T20:41:55.673Z,0.80
2019-02-10T20:44:48.716Z,0.80
2019-02-10T20:47:56.681Z,0.90
2019-02-10T20:50:50.812Z,0.90
2019-02-10T20:53:27.377Z,1.00
2019-02-10T20:56:34.547Z,0.73
2019-02-10T20:59:27.044Z,0.90
2019-02-10T21:02:19.339Z,0.80
2019-02-10T21:04:57.927Z,0.90
2019-02-10T21:07:35.248Z,0.80
2019-02-10T21:10:21.744Z,0.80
2019-02-10T21:13:07.471Z,0.80
2019-02-10T21:15:59.412Z,0.63
2019-02-10T21:18:49.944Z,0.77
2019-02-10T21:21:42.108Z,0.80
2019-02-10T21:24:25.952Z,0.80
2019-02-10T21:27:06.384Z,0.80
2019-02-10T21:30:07.532Z,0.80
2019-02-10T21:32:51.472Z,1.00
2019-02-10T21:35:43.800Z,0.80
2019-02-10T21:38:52.233Z,1.13
2019-02-10T21:45:15.205Z,1.07
2019-02-10T21:51:26.841Z,0.60
2019-02-10T21:54:08.632Z,0.50
2019-02-10T21:56:51.196Z,0.70
2019-02-10T21:59:32.837Z,0.73
2019-02-10T22:02:15.732Z,0.60
2019-02-10T22:04:57.900Z,0.60
2019-02-10T22:07:40.006Z,0.50
2019-02-10T22:10:22.472Z,0.63
2019-02-10T22:13:06.176Z,0.57
2019-02-10T22:15:48.580Z,0.50
2019-02-10T22:18:30.829Z,0.60
2019-02-10T22:21:13.707Z,0.40
2019-02-10T22:23:55.773Z,0.60
2019-02-10T22:26:38.591Z,0.50
2019-02-10T22:29:20.793Z,0.40
2019-02-10T22:32:03.234Z,0.50
2019-02-10T22:34:45.580Z,1.03
2019-02-10T22:37:27.973Z,0.40
2019-02-10T22:40:10.762Z,0.40
2019-02-10T22:42:53.405Z,0.40
2019-02-10T22:45:35.581Z,0.40
2019-02-10T22:48:17.909Z,0.50
2019-02-10T22:51:00.268Z,0.50
2019-02-10T22:53:42.601Z,0.60
2019-02-10T22:56:25.192Z,0.40
2019-02-10T22:59:07.540Z,0.40
2019-02-10T23:01:49.624Z,0.40
2019-02-10T23:04:32.180Z,0.40
2019-02-10T23:07:14.830Z,0.40
2019-02-10T23:09:57.298Z,0.40
2019-02-10T23:12:39.000Z,0.40
2019-02-10T23:15:20.964Z,0.50
2019-02-10T23:18:03.116Z,0.50
2019-02-10T23:20:45.298Z,0.40
2019-02-10T23:23:27.825Z,0.43
2019-02-10T23:26:09.709Z,0.40
2019-02-10T23:28:52.004Z,0.30
2019-02-10T23:31:34.901Z,0.37
2019-02-10T23:34:15.583Z,0.40
2019-02-10T23:37:05.216Z,0.47
2019-02-10T23:39:47.743Z,0.40
2019-02-10T23:42:30.319Z,0.60
2019-02-10T23:45:12.374Z,0.40
2019-02-10T23:47:54.888Z,0.50
2019-02-10T23:50:37.672Z,0.40
2019-02-10T23:53:20.379Z,0.50
2019-02-10T23:56:02.917Z,0.40
2019-02-10T23:58:45.508Z,0.50
